Time;durP1;ratioP1;P1;durP2;ratioP2;P2;SDS_P1;SDS_P2;PMS_P1;PMS_P2;Temp;Humidity;BMP_temperature;BMP_pressure;BME280_temperature;BME280_humidity;BME280_pressure;Samples;Min_cycle;Max_cycle;Signal;HPM_P1;HPM_P2
2022/12/31 00:01:14;;;;;;;0.00;0.00;;;3.80;99.90;;;;;;5032915;28;20070;-72
2022/12/31 00:03:41;;;;;;;0.00;0.00;;;3.70;99.90;;;;;;5051962;28;20025;-73
2022/12/31 00:06:15;;;;;;;0.00;0.00;;;3.70;99.90;;;;;;5034089;28;20810;-72
2022/12/31 00:08:42;;;;;;;0.55;0.55;;;3.70;99.90;;;;;;5032097;28;20101;-72
2022/12/31 00:11:10;;;;;;;0.00;0.00;;;3.60;99.90;;;;;;5037519;28;20010;-72
2022/12/31 00:13:36;;;;;;;0.00;0.00;;;3.60;99.90;;;;;;5029252;28;20018;-73
2022/12/31 00:16:27;;;;;;;0.00;0.00;;;3.50;99.90;;;;;;5034835;28;20029;-73
2022/12/31 00:18:55;;;;;;;0.00;0.00;;;3.60;99.90;;;;;;5028997;28;20048;-73
2022/12/31 00:21:21;;;;;;;0.08;0.08;;;3.60;99.90;;;;;;5037248;28;20044;-72
2022/12/31 00:23:47;;;;;;;0.10;0.10;;;3.60;99.90;;;;;;5033121;28;20025;-72
2022/12/31 00:26:19;;;;;;;0.00;0.00;;;3.60;99.90;;;;;;5049723;28;20036;-72
2022/12/31 00:28:46;;;;;;;1.85;0.82;;;3.70;99.90;;;;;;5036502;28;20108;-72
2022/12/31 00:31:19;;;;;;;0.00;0.00;;;3.70;99.90;;;;;;5041010;28;20014;-73
2022/12/31 00:33:45;;;;;;;0.00;0.00;;;3.60;99.90;;;;;;5041995;28;20132;-73
2022/12/31 00:36:15;;;;;;;0.00;0.00;;;3.60;99.90;;;;;;5036579;28;20144;-72
2022/12/31 00:38:43;;;;;;;0.00;0.00;;;3.60;99.90;;;;;;5041396;28;20485;-72
2022/12/31 00:41:09;;;;;;;0.00;0.00;;;3.60;99.90;;;;;;5036406;28;20029;-73
2022/12/31 00:43:34;;;;;;;0.00;0.00;;;3.60;99.90;;;;;;5035257;28;20036;-73
2022/12/31 00:46:01;;;;;;;1.20;0.83;;;3.60;99.90;;;;;;5037923;28;20017;-72
2022/12/31 00:48:27;;;;;;;0.13;0.13;;;3.60;99.90;;;;;;5040399;28;20021;-73
2022/12/31 00:50:54;;;;;;;0.00;0.00;;;3.60;99.90;;;;;;5041459;28;20021;-72
2022/12/31 00:53:20;;;;;;;0.03;0.03;;;3.70;99.90;;;;;;5054722;28;20017;-73
2022/12/31 00:55:46;;;;;;;0.00;0.00;;;3.60;99.90;;;;;;5037389;28;20063;-73
2022/12/31 00:58:19;;;;;;;0.00;0.00;;;3.60;99.90;;;;;;5038723;28;20021;-72
2022/12/31 01:00:44;;;;;;;0.00;0.00;;;3.70;99.90;;;;;;5062124;28;20688;-73
2022/12/31 01:03:10;;;;;;;0.00;0.00;;;3.40;99.90;;;;;;5034900;28;20052;-73
2022/12/31 01:05:36;;;;;;;0.00;0.00;;;3.70;99.90;;;;;;5036110;28;20390;-73
2022/12/31 01:08:02;;;;;;;0.00;0.00;;;3.70;99.90;;;;;;5036838;28;20417;-73
2022/12/31 01:13:14;;;;;;;0.90;0.55;;;3.90;99.90;;;;;;5028866;28;20033;-73
2022/12/31 01:15:42;;;;;;;0.73;0.43;;;3.90;99.90;;;;;;5033843;28;20649;-73
2022/12/31 01:18:08;;;;;;;0.00;0.00;;;3.80;99.90;;;;;;5033191;28;20021;-73
2022/12/31 01:20:38;;;;;;;0.00;0.00;;;3.80;99.90;;;;;;5038426;28;20045;-72
2022/12/31 01:23:05;;;;;;;0.00;0.00;;;3.80;99.90;;;;;;5034540;28;21504;-72
2022/12/31 01:25:33;;;;;;;;;;;3.80;99.90;;;;;;5036326;28;20034;-73
2022/12/31 01:27:59;;;;;;;0.35;0.28;;;3.80;99.90;;;;;;5037985;28;19998;-73
2022/12/31 01:30:24;;;;;;;0.00;0.00;;;3.90;99.90;;;;;;5040605;28;20520;-72
2022/12/31 01:32:50;;;;;;;0.00;0.00;;;3.90;99.90;;;;;;5036506;28;20021;-73
2022/12/31 01:35:16;;;;;;;0.00;0.00;;;3.70;99.90;;;;;;5030930;28;20021;-72
2022/12/31 01:37:43;;;;;;;0.00;0.00;;;3.70;99.90;;;;;;5039127;28;20017;-73
2022/12/31 01:40:09;;;;;;;0.00;0.00;;;3.70;99.90;;;;;;5032598;28;20032;-72
2022/12/31 01:42:35;;;;;;;0.47;0.47;;;3.60;99.90;;;;;;5033630;28;20111;-73
2022/12/31 01:45:00;;;;;;;0.63;0.63;;;3.50;99.90;;;;;;5039341;28;20025;-73
2022/12/31 01:47:43;;;;;;;0.03;0.03;;;3.50;99.90;;;;;;5035279;28;20470;-73
2022/12/31 01:50:18;;;;;;;0.00;0.00;;;3.50;99.90;;;;;;5035174;28;20021;-72
2022/12/31 01:52:48;;;;;;;0.00;0.00;;;3.40;99.90;;;;;;5038849;28;20010;-73
2022/12/31 01:55:20;;;;;;;0.00;0.00;;;3.50;99.90;;;;;;5056399;28;20025;-73
2022/12/31 01:57:48;;;;;;;0.00;0.00;;;3.50;99.90;;;;;;5059429;28;20056;-73
2022/12/31 02:00:15;;;;;;;0.00;0.00;;;3.50;99.90;;;;;;5038110;28;20036;-73
2022/12/31 02:02:41;;;;;;;;;;;3.50;99.90;;;;;;5043731;28;20060;-73
2022/12/31 02:05:29;;;;;;;0.00;0.00;;;3.60;99.90;;;;;;5039041;28;19928;-73
2022/12/31 02:07:56;;;;;;;0.05;0.05;;;3.70;99.90;;;;;;5033516;28;20022;-73
2022/12/31 02:10:21;;;;;;;;;;;3.60;99.90;;;;;;5035786;28;20018;-72
2022/12/31 02:12:47;;;;;;;0.00;0.00;;;3.60;99.90;;;;;;5037316;28;20396;-73
2022/12/31 02:15:13;;;;;;;0.20;0.20;;;3.70;99.90;;;;;;5056729;28;20021;-73
2022/12/31 02:18:02;;;;;;;0.00;0.00;;;3.80;99.90;;;;;;5032228;28;20115;-73
2022/12/31 02:20:40;;;;;;;0.00;0.00;;;3.70;99.90;;;;;;5036087;28;20087;-73
2022/12/31 02:23:25;;;;;;;0.00;0.00;;;3.80;99.90;;;;;;5030537;28;20037;-73
2022/12/31 02:26:03;;;;;;;0.55;0.55;;;3.80;99.90;;;;;;5028256;28;20024;-73
2022/12/31 02:29:00;;;;;;;0.30;0.30;;;3.80;99.90;;;;;;5030252;28;20036;-72
2022/12/31 02:31:45;;;;;;;6.07;0.95;;;3.80;99.90;;;;;;5046004;28;20701;-73
2022/12/31 02:34:12;;;;;;;0.00;0.00;;;3.80;99.90;;;;;;5034939;28;20041;-73
2022/12/31 02:36:43;;;;;;;0.47;0.47;;;3.90;99.90;;;;;;5034600;28;20057;-71
2022/12/31 02:39:11;;;;;;;0.00;0.00;;;3.90;99.90;;;;;;5048433;28;20033;-73
2022/12/31 02:41:49;;;;;;;0.00;0.00;;;4.00;99.90;;;;;;5035670;28;20029;-73
2022/12/31 02:44:27;;;;;;;0.00;0.00;;;4.00;99.90;;;;;;5030635;28;20033;-73
2022/12/31 02:47:19;;;;;;;0.00;0.00;;;4.00;99.90;;;;;;5034235;28;20048;-73
2022/12/31 02:49:51;;;;;;;0.00;0.00;;;4.00;99.90;;;;;;5030762;28;20029;-72
2022/12/31 02:53:01;;;;;;;0.00;0.00;;;4.00;99.90;;;;;;5041674;28;20021;-73
2022/12/31 02:55:26;;;;;;;0.00;0.00;;;4.00;99.90;;;;;;5026445;28;20021;-73
2022/12/31 02:57:56;;;;;;;0.00;0.00;;;3.90;99.90;;;;;;5031550;28;20097;-73
2022/12/31 03:03:09;;;;;;;0.00;0.00;;;3.90;99.90;;;;;;5035783;28;20433;-73
2022/12/31 03:05:41;;;;;;;0.00;0.00;;;4.00;99.90;;;;;;5032752;28;20029;-73
2022/12/31 03:08:07;;;;;;;0.00;0.00;;;3.90;99.90;;;;;;5030535;28;21000;-72
2022/12/31 03:10:34;;;;;;;0.00;0.00;;;3.90;99.90;;;;;;5029812;28;20029;-73
2022/12/31 03:13:00;;;;;;;0.00;0.00;;;3.90;99.90;;;;;;5033992;28;20040;-73
2022/12/31 03:15:31;;;;;;;0.00;0.00;;;4.00;99.90;;;;;;5033190;28;20056;-73
2022/12/31 03:17:56;;;;;;;0.10;0.10;;;4.00;99.90;;;;;;5024445;28;20463;-72
2022/12/31 03:23:24;;;;;;;0.00;0.00;;;4.10;99.90;;;;;;5036271;28;20052;-73
2022/12/31 03:25:49;;;;;;;0.00;0.00;;;4.00;99.90;;;;;;5028589;28;20059;-73
2022/12/31 03:28:18;;;;;;;0.00;0.00;;;4.00;99.90;;;;;;5031665;28;20102;-72
2022/12/31 03:30:48;;;;;;;0.20;0.20;;;4.00;99.90;;;;;;5037298;28;20119;-73
2022/12/31 03:33:14;;;;;;;0.00;0.00;;;3.90;99.90;;;;;;5028301;28;20879;-72
2022/12/31 03:35:42;;;;;;;0.00;0.00;;;4.00;99.90;;;;;;5034747;28;20024;-72
2022/12/31 03:38:07;;;;;;;0.00;0.00;;;4.00;99.90;;;;;;5035740;28;20025;-73
2022/12/31 03:40:41;;;;;;;0.00;0.00;;;4.00;99.90;;;;;;5035620;28;20079;-73
2022/12/31 03:43:07;;;;;;;0.00;0.00;;;4.00;99.90;;;;;;5036378;28;20021;-72
2022/12/31 03:45:35;;;;;;;0.00;0.00;;;4.00;99.90;;;;;;5032830;28;20032;-73
2022/12/31 03:48:01;;;;;;;0.00;0.00;;;4.00;99.90;;;;;;5034503;28;20021;-73
2022/12/31 03:50:27;;;;;;;0.10;0.10;;;3.90;99.90;;;;;;5040448;28;20065;-73
2022/12/31 03:52:53;;;;;;;0.00;0.00;;;4.00;99.90;;;;;;5040331;28;20049;-73
2022/12/31 03:55:19;;;;;;;0.00;0.00;;;4.00;99.90;;;;;;5040304;28;20096;-73
2022/12/31 03:57:45;;;;;;;0.00;0.00;;;4.10;99.90;;;;;;5043699;28;20029;-73
2022/12/31 04:00:17;;;;;;;0.00;0.00;;;4.00;99.90;;;;;;5041960;28;20037;-73
2022/12/31 04:02:44;;;;;;;0.00;0.00;;;4.00;99.90;;;;;;5033062;28;20300;-72
2022/12/31 04:05:10;;;;;;;0.00;0.00;;;4.10;99.90;;;;;;5033945;28;20591;-73
2022/12/31 04:07:36;;;;;;;;;;;4.10;99.90;;;;;;5034584;28;20823;-73
2022/12/31 04:10:04;;;;;;;0.00;0.00;;;4.10;99.90;;;;;;5049146;28;19915;-73
2022/12/31 04:12:30;;;;;;;0.00;0.00;;;4.10;99.90;;;;;;5030604;28;20014;-73
2022/12/31 04:14:56;;;;;;;0.00;0.00;;;4.10;99.90;;;;;;5039791;28;20381;-72
2022/12/31 04:17:21;;;;;;;0.10;0.10;;;4.10;99.90;;;;;;5041067;28;20470;-72
2022/12/31 04:19:47;;;;;;;0.00;0.00;;;4.10;99.90;;;;;;5037725;28;20033;-73
2022/12/31 04:22:13;;;;;;;0.00;0.00;;;4.00;99.90;;;;;;5042852;28;20116;-73
2022/12/31 04:24:38;;;;;;;0.00;0.00;;;4.00;99.90;;;;;;5038502;28;20029;-73
2022/12/31 04:27:04;;;;;;;0.00;0.00;;;4.00;99.90;;;;;;5036842;28;20075;-72
2022/12/31 04:29:30;;;;;;;0.00;0.00;;;4.00;99.90;;;;;;5037086;28;20407;-73
2022/12/31 04:31:55;;;;;;;0.00;0.00;;;4.10;99.90;;;;;;5037534;28;20485;-73
2022/12/31 04:34:21;;;;;;;0.00;0.00;;;4.10;99.90;;;;;;5038217;28;20021;-73
2022/12/31 04:36:47;;;;;;;0.00;0.00;;;4.20;99.90;;;;;;5042217;28;20017;-72
2022/12/31 04:39:12;;;;;;;0.00;0.00;;;4.20;99.90;;;;;;5035410;28;20028;-72
2022/12/31 04:41:38;;;;;;;0.00;0.00;;;4.20;99.90;;;;;;5051266;28;21357;-72
2022/12/31 04:44:03;;;;;;;0.00;0.00;;;4.20;99.90;;;;;;5037490;28;20026;-72
2022/12/31 04:46:31;;;;;;;0.00;0.00;;;4.10;99.90;;;;;;5041124;28;20033;-73
2022/12/31 04:48:59;;;;;;;0.00;0.00;;;4.20;99.90;;;;;;5029688;28;20048;-73
2022/12/31 04:51:26;;;;;;;0.00;0.00;;;4.10;99.90;;;;;;5040708;28;20064;-73
2022/12/31 04:53:52;;;;;;;0.05;0.05;;;4.20;99.90;;;;;;5037217;28;20399;-72
2022/12/31 04:56:18;;;;;;;0.00;0.00;;;4.10;99.90;;;;;;5035306;28;20029;-72
2022/12/31 04:58:44;;;;;;;0.00;0.00;;;4.10;99.90;;;;;;5036302;28;20033;-73
2022/12/31 05:01:10;;;;;;;0.00;0.00;;;4.20;99.90;;;;;;5037902;28;20257;-73
2022/12/31 05:03:36;;;;;;;0.00;0.00;;;4.20;99.90;;;;;;5041982;28;20302;-72
2022/12/31 05:06:12;;;;;;;0.00;0.00;;;4.30;99.90;;;;;;5035977;28;20209;-73
2022/12/31 05:08:38;;;;;;;0.47;0.47;;;4.20;99.90;;;;;;5033278;28;20572;-72
2022/12/31 05:11:08;;;;;;;0.00;0.00;;;4.10;99.90;;;;;;5031430;28;21091;-73
2022/12/31 05:13:34;;;;;;;0.00;0.00;;;4.20;99.90;;;;;;5033299;28;20117;-73
2022/12/31 05:16:06;;;;;;;0.00;0.00;;;4.20;99.90;;;;;;5028828;28;20548;-73
2022/12/31 05:18:32;;;;;;;0.10;0.10;;;4.20;99.90;;;;;;5034622;28;20406;-73
2022/12/31 05:20:57;;;;;;;0.47;0.30;;;4.30;99.90;;;;;;5037901;28;20037;-73
2022/12/31 05:23:23;;;;;;;0.00;0.00;;;4.20;99.90;;;;;;5031289;28;20035;-73
2022/12/31 05:25:51;;;;;;;0.00;0.00;;;4.20;99.90;;;;;;5034671;28;20100;-73
2022/12/31 05:28:17;;;;;;;0.32;0.32;;;4.30;99.90;;;;;;5033782;28;20021;-72
2022/12/31 05:30:43;;;;;;;0.00;0.00;;;4.20;99.90;;;;;;5039233;28;20043;-72
2022/12/31 05:33:09;;;;;;;0.00;0.00;;;4.30;99.90;;;;;;5038088;28;20128;-73
2022/12/31 05:35:35;;;;;;;0.00;0.00;;;4.30;99.90;;;;;;5036780;28;20533;-73
2022/12/31 05:38:01;;;;;;;0.00;0.00;;;4.30;99.90;;;;;;5032310;28;20255;-72
2022/12/31 05:40:27;;;;;;;0.00;0.00;;;4.30;99.90;;;;;;5032265;28;20029;-73
2022/12/31 05:42:53;;;;;;;0.00;0.00;;;4.30;99.90;;;;;;5031448;28;20032;-73
2022/12/31 05:45:22;;;;;;;0.00;0.00;;;4.30;99.90;;;;;;5037113;28;20020;-73
2022/12/31 05:47:47;;;;;;;0.10;0.10;;;4.40;99.90;;;;;;5034836;28;20028;-72
2022/12/31 05:50:14;;;;;;;0.00;0.00;;;4.40;99.90;;;;;;5041425;28;20029;-73
2022/12/31 05:52:40;;;;;;;0.00;0.00;;;4.40;99.90;;;;;;5033024;28;20018;-73
2022/12/31 05:55:07;;;;;;;0.00;0.00;;;4.30;99.90;;;;;;5051491;28;20037;-73
2022/12/31 05:57:33;;;;;;;0.00;0.00;;;4.30;99.90;;;;;;5039457;28;20032;-73
2022/12/31 05:59:59;;;;;;;0.00;0.00;;;4.30;99.90;;;;;;5036911;28;20022;-73
2022/12/31 06:02:24;;;;;;;0.00;0.00;;;4.40;99.90;;;;;;5037483;28;20428;-72
2022/12/31 06:04:50;;;;;;;0.00;0.00;;;4.30;99.90;;;;;;5035526;28;20037;-72
2022/12/31 06:07:16;;;;;;;0.00;0.00;;;4.30;99.90;;;;;;5029085;28;20054;-72
2022/12/31 06:09:41;;;;;;;0.00;0.00;;;4.30;99.90;;;;;;5032332;28;20041;-73
2022/12/31 06:12:08;;;;;;;0.00;0.00;;;4.20;99.90;;;;;;5030661;28;20411;-72
2022/12/31 06:14:33;;;;;;;0.00;0.00;;;4.20;99.90;;;;;;5037376;28;20103;-73
2022/12/31 06:16:59;;;;;;;0.87;0.87;;;4.30;99.90;;;;;;5030431;28;20037;-73
2022/12/31 06:19:25;;;;;;;0.00;0.00;;;4.30;99.90;;;;;;5054058;28;20024;-73
2022/12/31 06:21:51;;;;;;;0.00;0.00;;;4.20;99.90;;;;;;5031606;28;20025;-73
2022/12/31 06:24:17;;;;;;;0.00;0.00;;;4.20;99.90;;;;;;5031411;28;20025;-72
2022/12/31 06:26:42;;;;;;;0.60;0.30;;;4.10;99.90;;;;;;5037570;28;20086;-72
2022/12/31 06:29:09;;;;;;;0.00;0.00;;;4.10;99.90;;;;;;5037226;28;20032;-73
2022/12/31 06:31:35;;;;;;;0.00;0.00;;;4.10;99.90;;;;;;5037529;28;20025;-73
2022/12/31 06:34:01;;;;;;;0.00;0.00;;;4.10;99.90;;;;;;5038185;28;20033;-73
2022/12/31 06:36:28;;;;;;;0.20;0.17;;;4.10;99.90;;;;;;5038155;28;20021;-73
2022/12/31 06:38:54;;;;;;;0.00;0.00;;;4.20;99.90;;;;;;5041314;28;20023;-73
2022/12/31 06:41:20;;;;;;;0.20;0.20;;;4.20;99.90;;;;;;5033530;28;20021;-73
2022/12/31 06:43:46;;;;;;;0.00;0.00;;;4.20;99.90;;;;;;5033826;28;20013;-73
2022/12/31 06:46:17;;;;;;;0.00;0.00;;;4.20;99.90;;;;;;5049548;28;20027;-72
2022/12/31 06:48:43;;;;;;;0.00;0.00;;;4.00;99.90;;;;;;5039846;28;20014;-72
2022/12/31 06:51:13;;;;;;;;;;;4.10;99.90;;;;;;5035359;28;20017;-73
2022/12/31 06:53:39;;;;;;;0.00;0.00;;;4.10;99.90;;;;;;5034041;28;19974;-73
2022/12/31 06:56:12;;;;;;;0.00;0.00;;;4.20;99.90;;;;;;5030234;28;20139;-73
2022/12/31 06:58:39;;;;;;;0.00;0.00;;;4.10;99.90;;;;;;5038578;28;20021;-73
2022/12/31 07:01:23;;;;;;;0.10;0.10;;;4.10;99.90;;;;;;5033015;28;20112;-73
2022/12/31 07:04:17;;;;;;;1.20;0.65;;;4.20;99.90;;;;;;5030920;28;20048;-72
2022/12/31 07:06:53;;;;;;;0.00;0.00;;;4.20;99.90;;;;;;5033328;28;20036;-73
2022/12/31 07:09:35;;;;;;;0.00;0.00;;;4.20;99.90;;;;;;5054964;28;20025;-73
2022/12/31 07:12:12;;;;;;;0.03;0.03;;;4.20;99.90;;;;;;5030809;28;20539;-73
2022/12/31 07:15:00;;;;;;;0.00;0.00;;;4.20;99.90;;;;;;5033569;28;20017;-72
2022/12/31 07:18:05;;;;;;;0.00;0.00;;;4.30;99.90;;;;;;5027042;28;20363;-73
2022/12/31 07:20:31;;;;;;;1.10;1.08;;;4.20;99.90;;;;;;5036400;28;20041;-72
2022/12/31 07:22:57;;;;;;;0.00;0.00;;;4.20;99.90;;;;;;5037191;28;20039;-72
2022/12/31 07:25:23;;;;;;;0.00;0.00;;;4.20;99.90;;;;;;5032153;28;20033;-72
2022/12/31 07:28:08;;;;;;;0.00;0.00;;;4.30;99.90;;;;;;5029140;28;20040;-72
2022/12/31 07:30:58;;;;;;;0.00;0.00;;;4.40;99.90;;;;;;5036647;28;20027;-73
2022/12/31 07:33:33;;;;;;;0.00;0.00;;;4.30;99.90;;;;;;5026612;28;20748;-73
2022/12/31 07:36:05;;;;;;;0.25;0.17;;;4.40;99.90;;;;;;5035931;28;20018;-73
2022/12/31 07:39:05;;;;;;;0.00;0.00;;;4.30;99.90;;;;;;5028817;28;20022;-72
2022/12/31 07:42:06;;;;;;;0.00;0.00;;;4.30;99.90;;;;;;5026901;28;20044;-73
2022/12/31 07:44:57;;;;;;;0.05;0.05;;;4.40;99.90;;;;;;5025875;28;20540;-73
2022/12/31 07:47:26;;;;;;;0.00;0.00;;;4.40;99.90;;;;;;5031970;28;20021;-73
2022/12/31 07:49:53;;;;;;;0.00;0.00;;;4.50;99.90;;;;;;5033353;28;20100;-73
2022/12/31 07:52:20;;;;;;;0.00;0.00;;;4.60;99.90;;;;;;5027790;28;20016;-73
2022/12/31 07:54:47;;;;;;;0.00;0.00;;;4.70;99.90;;;;;;5039079;28;20493;-72
2022/12/31 07:57:16;;;;;;;0.00;0.00;;;4.80;99.90;;;;;;5039069;28;20784;-73
2022/12/31 07:59:57;;;;;;;0.00;0.00;;;4.80;99.90;;;;;;5037109;28;20108;-73
2022/12/31 08:02:39;;;;;;;0.13;0.13;;;4.70;99.90;;;;;;5026510;28;20506;-73
2022/12/31 08:05:10;;;;;;;0.00;0.00;;;4.70;99.90;;;;;;5038636;28;20087;-72
2022/12/31 08:07:48;;;;;;;0.00;0.00;;;4.70;99.90;;;;;;5033425;28;20033;-73
2022/12/31 08:10:52;;;;;;;0.10;0.10;;;4.80;99.90;;;;;;5038201;28;20029;-73
2022/12/31 08:13:18;;;;;;;0.00;0.00;;;4.90;99.90;;;;;;5034158;28;20048;-73
2022/12/31 08:15:44;;;;;;;0.10;0.10;;;5.10;99.90;;;;;;5036225;28;20026;-73
2022/12/31 08:18:10;;;;;;;0.10;0.10;;;5.20;99.90;;;;;;5031083;28;20109;-73
2022/12/31 08:21:05;;;;;;;0.00;0.00;;;5.40;99.90;;;;;;5034768;28;20099;-73
2022/12/31 08:23:52;;;;;;;0.10;0.10;;;5.70;99.90;;;;;;5024918;28;20286;-73
2022/12/31 08:26:33;;;;;;;0.00;0.00;;;6.50;99.90;;;;;;5033459;28;20018;-73
2022/12/31 08:29:28;;;;;;;0.00;0.00;;;7.90;99.90;;;;;;5032966;28;20033;-73
2022/12/31 08:32:15;;;;;;;0.00;0.00;;;8.70;99.90;;;;;;5031082;28;20033;-73
2022/12/31 08:34:47;;;;;;;0.00;0.00;;;9.50;99.90;;;;;;5052592;28;20140;-73
2022/12/31 08:37:30;;;;;;;0.20;0.20;;;9.60;99.90;;;;;;5033114;28;20025;-73
2022/12/31 08:40:49;;;;;;;0.00;0.00;;;9.50;99.90;;;;;;5034925;28;20493;-73
2022/12/31 08:43:33;;;;;;;0.00;0.00;;;9.50;99.90;;;;;;5015794;28;20037;-73
2022/12/31 08:45:59;;;;;;;0.10;0.10;;;10.30;99.90;;;;;;5032036;28;20021;-73
2022/12/31 08:48:46;;;;;;;0.20;0.20;;;11.00;99.90;;;;;;5035775;28;20068;-73
2022/12/31 08:51:17;;;;;;;0.00;0.00;;;11.60;99.90;;;;;;5043106;28;20713;-73
2022/12/31 08:53:43;;;;;;;0.00;0.00;;;11.50;99.90;;;;;;5041118;28;20013;-73
2022/12/31 08:56:35;;;;;;;0.00;0.00;;;11.00;99.90;;;;;;5036660;28;20084;-73
2022/12/31 08:59:09;;;;;;;0.05;0.05;;;10.90;99.90;;;;;;5037010;28;20024;-73
2022/12/31 09:02:13;;;;;;;0.10;0.10;;;10.70;99.90;;;;;;5049031;28;20126;-73
2022/12/31 09:04:55;;;;;;;0.55;0.38;;;10.40;99.90;;;;;;5044875;28;20543;-73
2022/12/31 09:07:33;;;;;;;0.00;0.00;;;10.30;99.90;;;;;;5032083;28;20017;-73
2022/12/31 09:10:26;;;;;;;0.20;0.20;;;10.40;99.90;;;;;;5040146;28;20031;-73
2022/12/31 09:13:16;;;;;;;0.00;0.00;;;9.80;99.90;;;;;;5032921;28;20026;-72
2022/12/31 09:15:55;;;;;;;1.55;0.47;;;9.00;99.90;;;;;;5054004;28;20029;-73
2022/12/31 09:18:22;;;;;;;1.02;0.50;;;8.90;99.90;;;;;;5033800;28;20021;-72
2022/12/31 09:20:48;;;;;;;0.00;0.00;;;9.00;99.90;;;;;;5037435;28;20035;-73
2022/12/31 09:23:14;;;;;;;0.00;0.00;;;8.90;99.90;;;;;;5039733;28;20912;-73
2022/12/31 09:26:14;;;;;;;0.00;0.00;;;8.70;99.90;;;;;;5053654;28;20021;-72
2022/12/31 09:29:10;;;;;;;0.00;0.00;;;8.30;99.90;;;;;;5037075;28;20848;-73
2022/12/31 09:32:27;;;;;;;1.00;0.20;;;8.00;99.90;;;;;;5040607;28;20037;-73
2022/12/31 09:35:18;;;;;;;0.10;0.10;;;7.80;99.90;;;;;;5034796;28;20071;-73
2022/12/31 09:38:25;;;;;;;0.00;0.00;;;7.90;99.90;;;;;;5031699;28;20053;-73
2022/12/31 09:41:00;;;;;;;0.10;0.10;;;8.20;99.90;;;;;;5016971;28;20029;-72
2022/12/31 09:43:45;;;;;;;0.00;0.00;;;8.40;99.90;;;;;;5033818;28;20052;-73
2022/12/31 09:46:24;;;;;;;0.00;0.00;;;8.50;99.90;;;;;;5049277;28;20116;-73
2022/12/31 09:49:21;;;;;;;0.00;0.00;;;8.50;99.90;;;;;;5026133;28;20013;-73
2022/12/31 09:51:52;;;;;;;0.00;0.00;;;8.50;99.90;;;;;;5044587;28;20018;-73
2022/12/31 09:54:21;;;;;;;0.00;0.00;;;8.70;99.90;;;;;;5032450;28;20018;-73
2022/12/31 09:57:04;;;;;;;0.00;0.00;;;9.10;99.90;;;;;;5053139;28;20044;-72
2022/12/31 09:59:36;;;;;;;0.00;0.00;;;9.20;99.90;;;;;;5036662;28;20040;-73
2022/12/31 10:02:33;;;;;;;0.00;0.00;;;9.10;99.90;;;;;;5030658;28;20029;-73
2022/12/31 10:05:11;;;;;;;0.00;0.00;;;9.00;99.90;;;;;;5047375;28;20144;-73
2022/12/31 10:07:42;;;;;;;0.00;0.00;;;8.90;99.90;;;;;;5032454;28;20025;-73
2022/12/31 10:10:27;;;;;;;0.20;0.20;;;8.90;99.90;;;;;;5032645;28;20033;-73
2022/12/31 10:13:23;;;;;;;0.00;0.00;;;8.80;99.90;;;;;;5029107;28;20104;-73
2022/12/31 10:16:22;;;;;;;0.10;0.10;;;8.50;99.90;;;;;;5037776;28;20045;-73
2022/12/31 10:18:51;;;;;;;0.00;0.00;;;8.30;99.90;;;;;;5034839;28;20351;-73
2022/12/31 10:21:43;;;;;;;0.20;0.20;;;8.20;99.90;;;;;;5027890;28;20044;-73
2022/12/31 10:24:40;;;;;;;0.00;0.00;;;8.10;99.90;;;;;;5031814;28;20037;-72
2022/12/31 10:27:44;;;;;;;0.00;0.00;;;8.10;99.90;;;;;;5052342;28;20481;-72
2022/12/31 10:30:17;;;;;;;0.00;0.00;;;8.20;99.90;;;;;;5034843;28;20021;-73
2022/12/31 10:33:01;;;;;;;0.35;0.20;;;8.30;99.90;;;;;;5040983;28;20025;-73
2022/12/31 10:35:37;;;;;;;0.00;0.00;;;8.40;99.90;;;;;;5035607;28;20500;-73
2022/12/31 10:38:06;;;;;;;0.00;0.00;;;8.60;99.90;;;;;;5035775;28;20029;-73
2022/12/31 10:40:47;;;;;;;0.15;0.15;;;8.60;99.90;;;;;;5034203;28;20029;-73
2022/12/31 10:43:50;;;;;;;0.22;0.22;;;8.50;99.90;;;;;;5056338;28;20480;-73
2022/12/31 10:46:43;;;;;;;0.00;0.00;;;8.30;99.90;;;;;;5045186;28;20040;-73
2022/12/31 10:49:25;;;;;;;0.00;0.00;;;8.10;99.90;;;;;;5039693;28;20098;-72
2022/12/31 10:52:02;;;;;;;0.00;0.00;;;8.30;99.90;;;;;;5026181;28;20014;-73
2022/12/31 10:54:39;;;;;;;0.00;0.00;;;8.50;99.90;;;;;;5033407;28;20014;-73
2022/12/31 10:57:42;;;;;;;0.00;0.00;;;8.80;99.90;;;;;;5029741;28;20025;-73
2022/12/31 11:00:17;;;;;;;0.00;0.00;;;9.20;99.90;;;;;;5055482;28;20554;-73
2022/12/31 11:03:20;;;;;;;0.00;0.00;;;9.50;99.90;;;;;;5035439;28;20025;-72
2022/12/31 11:06:27;;;;;;;0.00;0.00;;;9.70;99.90;;;;;;5037809;28;20044;-73
2022/12/31 11:09:15;;;;;;;0.00;0.00;;;9.80;99.90;;;;;;5034425;28;20024;-73
2022/12/31 11:11:46;;;;;;;0.00;0.00;;;9.70;99.90;;;;;;5035309;28;20021;-73
2022/12/31 11:14:42;;;;;;;0.00;0.00;;;9.90;99.90;;;;;;5038929;28;20017;-73
2022/12/31 11:17:26;;;;;;;0.00;0.00;;;10.00;99.90;;;;;;5039010;28;20099;-73
2022/12/31 11:20:01;;;;;;;0.00;0.00;;;10.20;99.90;;;;;;5031449;28;20060;-74
2022/12/31 11:23:00;;;;;;;0.00;0.00;;;10.00;99.90;;;;;;5037664;28;20487;-73
2022/12/31 11:25:32;;;;;;;0.00;0.00;;;10.30;99.90;;;;;;5048907;28;20031;-73
2022/12/31 11:28:07;;;;;;;0.00;0.00;;;9.80;99.90;;;;;;5036210;28;20099;-72
2022/12/31 11:31:17;;;;;;;0.28;0.22;;;9.80;99.90;;;;;;5037060;28;20743;-73
2022/12/31 11:34:05;;;;;;;0.00;0.00;;;9.50;99.90;;;;;;5040054;28;20108;-73
2022/12/31 11:36:52;;;;;;;0.05;0.05;;;9.50;99.90;;;;;;5030528;28;20017;-72
2022/12/31 11:39:45;;;;;;;0.00;0.00;;;9.50;99.90;;;;;;5033547;28;20100;-73
2022/12/31 11:42:14;;;;;;;0.00;0.00;;;9.60;99.90;;;;;;5032501;28;20498;-73
2022/12/31 11:44:52;;;;;;;0.00;0.00;;;9.70;99.90;;;;;;5029768;28;20025;-73
2022/12/31 11:47:41;;;;;;;0.00;0.00;;;9.80;99.90;;;;;;5032752;28;20470;-73
2022/12/31 11:50:14;;;;;;;0.00;0.00;;;9.80;99.90;;;;;;5034941;28;20017;-73
2022/12/31 11:53:06;;;;;;;0.10;0.10;;;9.50;99.90;;;;;;5033334;28;20022;-73
2022/12/31 11:55:52;;;;;;;0.00;0.00;;;9.10;99.90;;;;;;5032933;28;20041;-72
2022/12/31 11:58:19;;;;;;;0.00;0.00;;;9.10;99.90;;;;;;5016780;28;20029;-73
2022/12/31 12:01:05;;;;;;;0.20;0.20;;;9.40;99.90;;;;;;5038288;28;20025;-73
2022/12/31 12:03:31;;;;;;;0.00;0.00;;;9.50;99.90;;;;;;5033163;28;20028;-73
2022/12/31 12:05:59;;;;;;;0.00;0.00;;;9.70;99.90;;;;;;5036865;28;20091;-73
2022/12/31 12:08:28;;;;;;;0.00;0.00;;;9.70;99.90;;;;;;5035017;28;20032;-73
2022/12/31 12:11:04;;;;;;;0.98;0.85;;;9.70;99.90;;;;;;5034695;28;20079;-73
2022/12/31 12:13:29;;;;;;;0.00;0.00;;;9.70;99.90;;;;;;5041610;28;20513;-73
2022/12/31 12:16:01;;;;;;;0.20;0.20;;;9.60;99.90;;;;;;5040109;28;20048;-73
2022/12/31 12:19:01;;;;;;;0.00;0.00;;;9.70;99.90;;;;;;5040777;28;20025;-72
2022/12/31 12:21:28;;;;;;;0.00;0.00;;;9.50;99.90;;;;;;5016815;28;20041;-73
2022/12/31 12:24:15;;;;;;;0.03;0.03;;;9.40;99.90;;;;;;5036029;28;20017;-73
2022/12/31 12:26:42;;;;;;;0.00;0.00;;;9.30;99.90;;;;;;5039015;28;20021;-73
2022/12/31 12:29:16;;;;;;;0.13;0.13;;;9.10;99.90;;;;;;5037165;28;20036;-73
2022/12/31 12:31:52;;;;;;;0.00;0.00;;;9.00;99.90;;;;;;5038910;28;20025;-73
2022/12/31 12:34:26;;;;;;;0.10;0.10;;;9.10;99.90;;;;;;5039723;28;20506;-73
2022/12/31 12:36:51;;;;;;;7.38;1.55;;;9.10;99.90;;;;;;5034643;28;20119;-72
2022/12/31 12:39:23;;;;;;;0.23;0.23;;;9.00;99.90;;;;;;5041269;28;20147;-73
2022/12/31 12:42:06;;;;;;;0.00;0.00;;;9.00;99.90;;;;;;5035082;28;20025;-72
2022/12/31 12:44:34;;;;;;;0.00;0.00;;;9.00;99.90;;;;;;5034820;28;20124;-73
2022/12/31 12:47:02;;;;;;;3.25;1.00;;;9.00;99.90;;;;;;5038743;28;20027;-73
2022/12/31 12:49:31;;;;;;;1.45;0.65;;;9.00;99.90;;;;;;5038211;28;20032;-73
2022/12/31 12:52:26;;;;;;;0.35;0.35;;;9.00;99.90;;;;;;5038089;28;20714;-73
2022/12/31 12:55:16;;;;;;;0.63;0.30;;;9.00;99.90;;;;;;5033903;28;20076;-73
2022/12/31 12:57:54;;;;;;;0.40;0.40;;;9.10;99.90;;;;;;5038930;28;20096;-73
2022/12/31 13:00:58;;;;;;;0.10;0.10;;;9.20;99.90;;;;;;5037089;28;20479;-73
2022/12/31 13:03:49;;;;;;;0.22;0.22;;;9.10;99.90;;;;;;5028903;28;20073;-73
2022/12/31 13:06:23;;;;;;;0.00;0.00;;;9.30;99.90;;;;;;5031250;28;20025;-73
2022/12/31 13:09:17;;;;;;;0.00;0.00;;;9.30;99.90;;;;;;5025600;28;20022;-73
2022/12/31 13:12:41;;;;;;;0.00;0.00;;;9.30;99.90;;;;;;5033581;28;20030;-73
2022/12/31 13:15:22;;;;;;;0.00;0.00;;;9.20;99.90;;;;;;5042531;28;20075;-72
2022/12/31 13:18:23;;;;;;;0.00;0.00;;;9.00;99.90;;;;;;5023738;28;20021;-73
2022/12/31 13:20:52;;;;;;;0.13;0.13;;;8.90;99.90;;;;;;5034689;28;20045;-73
2022/12/31 13:23:48;;;;;;;0.00;0.00;;;8.90;99.90;;;;;;5032372;28;20026;-73
2022/12/31 13:26:37;;;;;;;0.05;0.05;;;8.90;99.90;;;;;;5035801;28;20022;-72
2022/12/31 13:29:04;;;;;;;0.00;0.00;;;9.00;99.90;;;;;;5030912;28;20111;-73
2022/12/31 13:31:38;;;;;;;0.10;0.10;;;9.00;99.90;;;;;;5031899;28;20074;-73
2022/12/31 13:34:16;;;;;;;0.00;0.00;;;9.00;99.90;;;;;;5037405;28;20537;-73
2022/12/31 13:36:44;;;;;;;0.00;0.00;;;9.00;99.90;;;;;;5036701;28;20112;-73
2022/12/31 13:39:17;;;;;;;0.20;0.15;;;8.90;99.90;;;;;;5029027;28;20017;-72
2022/12/31 13:41:57;;;;;;;0.00;0.00;;;8.80;99.90;;;;;;5040587;28;21436;-73
2022/12/31 13:44:31;;;;;;;0.00;0.00;;;8.80;99.90;;;;;;5030270;28;20017;-73
2022/12/31 13:47:16;;;;;;;0.00;0.00;;;8.80;99.90;;;;;;5033523;28;20096;-73